首页
METAR-TAF:

METAR-TAF

机场 :

坎佩尔, 法国

纬度: 47-58N, 经度: 004-10W, 海拔: 92米

当前天气观测

该预报发布于32分钟前的17:30 UTC
风速8节,风向,在南转南东南转西南之间变化
温度 11°C
湿度 71%
气压 1012 hPa
能见度10公里或以上
多云层高于4800英尺
阴天层高于17000英尺

METAR: LFRQ 191730Z AUTO 18008KT 150V210 9999 // BKN048 OVC170 11/06 Q1012

时间: 19:02 (18:02 UTC)

预报

该预报发布于1小时和2分钟前的17:00 UTC
预报有效从19日的 18点(UTC)到 20日的 18点(UTC)
风速9节,风向
能见度10公里或以上
散云层高于2600英尺
散云层高于4300英尺
多云层高于4900英尺
成为
从 19日的 20点(UTC)到 19日的 22点(UTC)
风速17节,风向南转南东,有时为27节阵风
成为
从 20日的 03点(UTC)到 20日的 05点(UTC)
能見度: 4000
多云层高于500英尺
轻雾
成为
从 20日的 08点(UTC)到 20日的 10点(UTC)
能见度10公里或以上
多云层高于1000英尺
短暂存在
从 20日的 14点(UTC)到 20日的 18点(UTC)
能見度: 5000
多云层高于1600英尺, 塔状积云.
阵雨

TAF: LFRQ 191700Z 1918/2018 18009KT 9999 SCT026 SCT043 BKN049 BECMG 1920/1922 16017G27KT BECMG 2003/2005 4000 BR BKN005 BECMG 2008/2010 9999 BKN010 TEMPO 2014/2018 5000 SHRA BKN016TCU

超过4000个机场的气象观测和天气预报(METAR&TAF报告)。

可查询的气象台以黄色和红色小点在地图上表示。

将鼠标移到小点上方,可查看气象台名称。

然后点击查看天气观测和预报。

如需切换地图:点击带黑十字的绿色按钮放大地图;点击带横线的绿色按钮缩小地图;或者点击绿色箭头查看邻近地区的地图。


METAR-TAF: